Time;durP1;ratioP1;P1;durP2;ratioP2;P2;SDS_P1;SDS_P2;PMS_P1;PMS_P2;Temp;Humidity;BMP_temperature;BMP_pressure;BME280_temperature;BME280_humidity;BME280_pressure;Samples;Min_cycle;Max_cycle;Signal;HPM_P1;HPM_P2
2021/10/11 00:00:33;;;;;;;0.00;0.00;;;;;;;;;;5103693;28;20209;-66
2021/10/11 00:03:01;;;;;;;0.00;0.00;;;;;;;;;;5104247;28;20206;-66
2021/10/11 00:05:28;;;;;;;3.80;3.60;;;;;;;;;;5104343;28;20551;-67
2021/10/11 00:07:57;;;;;;;0.00;0.00;;;;;;;;;;5100393;28;21990;-66
2021/10/11 00:10:25;;;;;;;0.00;0.00;;;;;;;;;;5105559;28;20204;-67
2021/10/11 00:12:53;;;;;;;0.00;0.00;;;;;;;;;;5102407;28;20600;-66
2021/10/11 00:15:21;;;;;;;0.00;0.00;;;;;;;;;;5099772;28;20210;-66
2021/10/11 00:17:49;;;;;;;0.00;0.00;;;;;;;;;;5102763;28;20222;-66
2021/10/11 00:20:16;;;;;;;0.00;0.00;;;;;;;;;;5103513;28;20227;-66
2021/10/11 00:22:44;;;;;;;0.00;0.00;;;;;;;;;;5107798;28;20217;-65
2021/10/11 00:25:13;;;;;;;0.00;0.00;;;;;;;;;;5099134;28;20198;-65
2021/10/11 00:27:41;;;;;;;0.00;0.00;;;;;;;;;;5109988;28;20193;-66
2021/10/11 00:30:09;;;;;;;0.00;0.00;;;;;;;;;;5104500;28;20569;-67
2021/10/11 00:32:37;;;;;;;0.00;0.00;;;;;;;;;;5103568;28;20207;-66
2021/10/11 00:35:04;;;;;;;0.00;0.00;;;;;;;;;;5103192;28;20221;-66
2021/10/11 00:37:32;;;;;;;0.00;0.00;;;;;;;;;;5103792;28;20213;-66
2021/10/11 00:40:00;;;;;;;0.00;0.00;;;;;;;;;;5103585;28;20194;-65
2021/10/11 00:42:28;;;;;;;0.00;0.00;;;;;;;;;;5099648;28;20210;-66
2021/10/11 00:44:56;;;;;;;0.00;0.00;;;;;;;;;;5107204;28;20635;-67
2021/10/11 00:47:23;;;;;;;0.00;0.00;;;;;;;;;;5101608;28;20565;-65
2021/10/11 00:49:51;;;;;;;0.00;0.00;;;;;;;;;;5104841;28;20193;-66
2021/10/11 00:52:18;;;;;;;0.00;0.00;;;;;;;;;;5102307;28;20202;-66
2021/10/11 00:54:46;;;;;;;0.00;0.00;;;;;;;;;;5100646;28;20229;-67
2021/10/11 00:57:13;;;;;;;0.00;0.00;;;;;;;;;;5103247;28;20203;-66
2021/10/11 00:59:43;;;;;;;0.00;0.00;;;;;;;;;;5101770;28;20277;-68
2021/10/11 01:02:10;;;;;;;0.00;0.00;;;;;;;;;;5099590;28;20209;-66
2021/10/11 01:04:38;;;;;;;0.00;0.00;;;;;;;;;;5100767;28;20204;-66
2021/10/11 01:07:05;;;;;;;0.00;0.00;;;;;;;;;;5101639;28;20314;-66
2021/10/11 01:09:33;;;;;;;0.00;0.00;;;;;;;;;;5105233;28;20198;-66
2021/10/11 01:12:00;;;;;;;0.00;0.00;;;;;;;;;;5105690;28;20208;-66
2021/10/11 01:14:28;;;;;;;0.00;0.00;;;;;;;;;;5102870;28;20714;-66
2021/10/11 01:16:57;;;;;;;0.00;0.00;;;;;;;;;;5101670;28;20206;-66
2021/10/11 01:19:25;;;;;;;0.00;0.00;;;;;;;;;;5099746;28;20233;-66
2021/10/11 01:21:54;;;;;;;0.00;0.00;;;;;;;;;;5100970;28;20224;-66
2021/10/11 01:24:21;;;;;;;0.00;0.00;;;;;;;;;;5101608;28;20208;-66
2021/10/11 01:26:48;;;;;;;0.00;0.00;;;;;;;;;;5104516;28;20797;-66
2021/10/11 01:29:18;;;;;;;0.00;0.00;;;;;;;;;;5110940;28;20198;-66
2021/10/11 01:31:46;;;;;;;0.00;0.00;;;;;;;;;;5109095;28;20212;-66
2021/10/11 01:34:14;;;;;;;0.00;0.00;;;;;;;;;;5101704;28;20230;-66
2021/10/11 01:36:41;;;;;;;0.00;0.00;;;;;;;;;;5105180;28;20208;-67
2021/10/11 01:39:10;;;;;;;0.00;0.00;;;;;;;;;;5104289;28;20202;-66
2021/10/11 01:41:38;;;;;;;0.00;0.00;;;;;;;;;;5104076;28;20216;-66
2021/10/11 01:44:06;;;;;;;0.00;0.00;;;;;;;;;;5100288;28;20205;-66
2021/10/11 01:46:34;;;;;;;0.00;0.00;;;;;;;;;;5101453;28;20583;-66
2021/10/11 01:49:01;;;;;;;0.00;0.00;;;;;;;;;;5102250;28;20493;-66
2021/10/11 01:51:29;;;;;;;0.00;0.00;;;;;;;;;;5103387;28;20213;-66
2021/10/11 01:53:56;;;;;;;0.00;0.00;;;;;;;;;;5099125;28;20241;-66
2021/10/11 01:56:25;;;;;;;0.00;0.00;;;;;;;;;;5104275;28;20213;-66
2021/10/11 01:58:52;;;;;;;0.00;0.00;;;;;;;;;;5102222;28;20193;-66
2021/10/11 02:01:20;;;;;;;0.00;0.00;;;;;;;;;;5100315;28;20225;-66
2021/10/11 02:03:47;;;;;;;0.00;0.00;;;;;;;;;;5100478;28;20576;-66
2021/10/11 02:06:15;;;;;;;0.00;0.00;;;;;;;;;;5102654;28;20194;-66
2021/10/11 02:08:42;;;;;;;0.00;0.00;;;;;;;;;;5098424;28;20209;-66
2021/10/11 02:11:09;;;;;;;0.00;0.00;;;;;;;;;;5100255;28;20216;-67
2021/10/11 02:13:38;;;;;;;0.00;0.00;;;;;;;;;;5107357;28;20202;-66
2021/10/11 02:16:06;;;;;;;0.00;0.00;;;;;;;;;;5104762;28;20197;-66
2021/10/11 02:18:33;;;;;;;0.00;0.00;;;;;;;;;;5102433;28;20234;-67
2021/10/11 02:21:01;;;;;;;0.00;0.00;;;;;;;;;;5106470;28;20202;-67
2021/10/11 02:23:28;;;;;;;0.00;0.00;;;;;;;;;;5107424;28;20208;-66
2021/10/11 02:25:56;;;;;;;0.00;0.00;;;;;;;;;;5105184;28;20205;-66
2021/10/11 02:28:23;;;;;;;0.00;0.00;;;;;;;;;;5107094;28;20197;-66
2021/10/11 02:30:52;;;;;;;0.00;0.00;;;;;;;;;;5093991;28;20212;-66
2021/10/11 02:33:19;;;;;;;0.00;0.00;;;;;;;;;;5108088;28;20197;-66
2021/10/11 02:35:47;;;;;;;0.00;0.00;;;;;;;;;;5101121;28;20229;-66
2021/10/11 02:38:14;;;;;;;0.00;0.00;;;;;;;;;;5104947;28;20205;-66
2021/10/11 02:40:42;;;;;;;0.00;0.00;;;;;;;;;;5109688;28;20670;-66
2021/10/11 02:43:09;;;;;;;0.00;0.00;;;;;;;;;;5109896;28;20213;-66
2021/10/11 02:45:37;;;;;;;0.00;0.00;;;;;;;;;;5100002;28;20224;-66
2021/10/11 02:48:06;;;;;;;0.00;0.00;;;;;;;;;;5107974;28;20571;-67
2021/10/11 02:50:34;;;;;;;0.00;0.00;;;;;;;;;;5108649;28;20289;-66
2021/10/11 02:53:01;;;;;;;0.00;0.00;;;;;;;;;;5105083;28;20288;-66
2021/10/11 02:55:29;;;;;;;0.00;0.00;;;;;;;;;;5104710;28;20621;-66
2021/10/11 02:57:56;;;;;;;0.00;0.00;;;;;;;;;;5105804;28;20210;-66
2021/10/11 03:00:24;;;;;;;0.00;0.00;;;;;;;;;;5108350;28;20210;-66
2021/10/11 03:02:51;;;;;;;0.00;0.00;;;;;;;;;;5107613;28;20202;-66
2021/10/11 03:05:20;;;;;;;0.00;0.00;;;;;;;;;;5106641;28;20198;-66
2021/10/11 03:07:48;;;;;;;0.00;0.00;;;;;;;;;;5108873;28;20209;-67
2021/10/11 03:10:15;;;;;;;0.00;0.00;;;;;;;;;;5104960;28;20205;-66
2021/10/11 03:12:42;;;;;;;0.00;0.00;;;;;;;;;;5100497;28;20209;-66
2021/10/11 03:15:10;;;;;;;0.00;0.00;;;;;;;;;;5104896;28;20230;-66
2021/10/11 03:17:38;;;;;;;0.00;0.00;;;;;;;;;;5100569;28;20229;-67
2021/10/11 03:20:06;;;;;;;0.00;0.00;;;;;;;;;;5101208;28;20209;-64
2021/10/11 03:22:35;;;;;;;0.00;0.00;;;;;;;;;;5095154;28;22827;-67
2021/10/11 03:25:02;;;;;;;0.00;0.00;;;;;;;;;;5099030;28;20194;-66
2021/10/11 03:27:30;;;;;;;0.00;0.00;;;;;;;;;;5100232;28;20201;-66
2021/10/11 03:29:57;;;;;;;0.00;0.00;;;;;;;;;;5100849;28;20665;-66
2021/10/11 03:32:24;;;;;;;0.00;0.00;;;;;;;;;;5104708;28;20205;-67
2021/10/11 03:34:52;;;;;;;0.00;0.00;;;;;;;;;;5099827;28;20584;-66
2021/10/11 03:37:19;;;;;;;0.00;0.00;;;;;;;;;;5099152;28;20213;-66
2021/10/11 03:39:48;;;;;;;0.00;0.00;;;;;;;;;;5097754;28;20201;-66
2021/10/11 03:42:15;;;;;;;0.00;0.00;;;;;;;;;;5100482;28;20204;-66
2021/10/11 03:44:43;;;;;;;0.00;0.00;;;;;;;;;;5101789;28;20204;-66
2021/10/11 03:47:10;;;;;;;0.00;0.00;;;;;;;;;;5097431;28;20201;-66
2021/10/11 03:49:38;;;;;;;0.00;0.00;;;;;;;;;;5099404;28;20204;-66
2021/10/11 03:52:05;;;;;;;0.00;0.00;;;;;;;;;;5103875;28;20198;-66
2021/10/11 03:54:33;;;;;;;0.00;0.00;;;;;;;;;;5104646;28;20269;-66
2021/10/11 03:57:02;;;;;;;0.00;0.00;;;;;;;;;;5102438;28;20573;-66
2021/10/11 03:59:29;;;;;;;0.00;0.00;;;;;;;;;;5098309;28;20578;-66
2021/10/11 04:01:56;;;;;;;0.00;0.00;;;;;;;;;;5106250;28;20701;-66
2021/10/11 04:04:24;;;;;;;0.00;0.00;;;;;;;;;;5106641;28;20649;-67
2021/10/11 04:06:53;;;;;;;0.00;0.00;;;;;;;;;;5106807;28;20639;-66
2021/10/11 04:09:26;;;;;;;0.00;0.00;;;;;;;;;;5106821;28;20249;-66
2021/10/11 04:11:53;;;;;;;0.00;0.00;;;;;;;;;;5104782;28;20204;-66
2021/10/11 04:14:26;;;;;;;0.00;0.00;;;;;;;;;;5105291;28;20240;-66
2021/10/11 04:16:53;;;;;;;0.00;0.00;;;;;;;;;;5097485;28;20212;-66
2021/10/11 04:19:21;;;;;;;0.00;0.00;;;;;;;;;;5103099;28;20321;-66
2021/10/11 04:21:48;;;;;;;0.00;0.00;;;;;;;;;;5104758;28;20673;-67
2021/10/11 04:24:15;;;;;;;0.00;0.00;;;;;;;;;;5105571;28;20202;-66
2021/10/11 04:26:43;;;;;;;0.00;0.00;;;;;;;;;;5107157;28;20202;-66
2021/10/11 04:29:10;;;;;;;0.00;0.00;;;;;;;;;;5102317;28;20700;-66
2021/10/11 04:31:39;;;;;;;0.00;0.00;;;;;;;;;;5105790;28;20659;-66
2021/10/11 04:34:06;;;;;;;0.00;0.00;;;;;;;;;;5109415;28;20206;-66
2021/10/11 04:36:34;;;;;;;0.00;0.00;;;;;;;;;;5111094;28;20570;-66
2021/10/11 04:39:01;;;;;;;0.00;0.00;;;;;;;;;;5099458;28;20198;-66
2021/10/11 04:41:29;;;;;;;0.00;0.00;;;;;;;;;;5110136;28;20225;-66
2021/10/11 04:43:57;;;;;;;0.00;0.00;;;;;;;;;;5108068;28;20228;-65
2021/10/11 04:46:24;;;;;;;0.00;0.00;;;;;;;;;;5110376;28;20262;-65
2021/10/11 04:48:53;;;;;;;0.00;0.00;;;;;;;;;;5107743;28;20197;-66
2021/10/11 04:51:20;;;;;;;0.00;0.00;;;;;;;;;;5107116;28;20206;-65
2021/10/11 04:53:48;;;;;;;0.00;0.00;;;;;;;;;;5107213;28;20198;-65
2021/10/11 04:56:15;;;;;;;0.00;0.00;;;;;;;;;;5108775;28;20232;-66
2021/10/11 04:58:43;;;;;;;0.00;0.00;;;;;;;;;;5104648;28;20217;-65
2021/10/11 05:01:10;;;;;;;0.00;0.00;;;;;;;;;;5104233;28;20209;-66
2021/10/11 05:03:37;;;;;;;0.00;0.00;;;;;;;;;;5105499;28;20571;-66
2021/10/11 05:06:06;;;;;;;0.00;0.00;;;;;;;;;;5111002;28;20220;-65
2021/10/11 05:08:34;;;;;;;0.00;0.00;;;;;;;;;;5109376;28;20259;-66
2021/10/11 05:11:01;;;;;;;0.00;0.00;;;;;;;;;;5103209;28;20570;-66
2021/10/11 05:13:28;;;;;;;0.00;0.00;;;;;;;;;;5108201;28;20727;-66
2021/10/11 05:15:56;;;;;;;0.00;0.00;;;;;;;;;;5110162;28;20233;-66
2021/10/11 05:18:24;;;;;;;0.00;0.00;;;;;;;;;;5104332;28;20230;-65
2021/10/11 05:20:51;;;;;;;0.00;0.00;;;;;;;;;;5108644;28;20202;-65
2021/10/11 05:23:20;;;;;;;0.00;0.00;;;;;;;;;;5106124;28;20686;-66
2021/10/11 05:25:48;;;;;;;0.00;0.00;;;;;;;;;;5103654;28;20271;-65
2021/10/11 05:28:15;;;;;;;0.00;0.00;;;;;;;;;;5101343;28;20650;-65
2021/10/11 05:30:43;;;;;;;0.00;0.00;;;;;;;;;;5101919;28;20694;-66
2021/10/11 05:33:11;;;;;;;0.00;0.00;;;;;;;;;;5101913;28;20209;-67
2021/10/11 05:35:39;;;;;;;0.00;0.00;;;;;;;;;;5100080;28;20226;-66
2021/10/11 05:38:07;;;;;;;0.00;0.00;;;;;;;;;;5100645;28;20213;-66
2021/10/11 05:40:35;;;;;;;0.00;0.00;;;;;;;;;;5102732;28;20198;-65
2021/10/11 05:43:03;;;;;;;0.00;0.00;;;;;;;;;;5098840;28;20206;-65
2021/10/11 05:45:30;;;;;;;0.00;0.00;;;;;;;;;;5101099;28;20286;-65
2021/10/11 05:47:58;;;;;;;0.00;0.00;;;;;;;;;;5102141;28;20228;-66
2021/10/11 05:50:25;;;;;;;0.00;0.00;;;;;;;;;;5107212;28;20209;-67
2021/10/11 05:52:53;;;;;;;0.00;0.00;;;;;;;;;;5104097;28;20201;-66
2021/10/11 05:55:20;;;;;;;0.00;0.00;;;;;;;;;;5108195;28;20225;-66
2021/10/11 05:57:49;;;;;;;0.00;0.00;;;;;;;;;;5099344;28;20223;-66
2021/10/11 06:00:17;;;;;;;0.00;0.00;;;;;;;;;;5101158;28;20224;-67
2021/10/11 06:02:44;;;;;;;0.00;0.00;;;;;;;;;;5100151;28;20202;-66
2021/10/11 06:05:12;;;;;;;0.00;0.00;;;;;;;;;;5109412;28;20216;-66
2021/10/11 06:07:39;;;;;;;0.00;0.00;;;;;;;;;;5107771;28;20654;-66
2021/10/11 06:10:07;;;;;;;0.00;0.00;;;;;;;;;;5104306;28;20198;-66
2021/10/11 06:12:34;;;;;;;0.00;0.00;;;;;;;;;;5101518;28;20570;-66
2021/10/11 06:15:03;;;;;;;0.00;0.00;;;;;;;;;;5108034;28;20231;-66
2021/10/11 06:17:31;;;;;;;0.00;0.00;;;;;;;;;;5103927;28;20320;-66
2021/10/11 06:19:58;;;;;;;0.00;0.00;;;;;;;;;;5100057;28;20231;-66
2021/10/11 06:22:26;;;;;;;0.00;0.00;;;;;;;;;;5100473;28;20201;-66
2021/10/11 06:24:53;;;;;;;0.00;0.00;;;;;;;;;;5102161;28;20198;-66
2021/10/11 06:27:20;;;;;;;0.00;0.00;;;;;;;;;;5097657;28;20193;-66
2021/10/11 06:29:48;;;;;;;0.00;0.00;;;;;;;;;;5101002;28;20216;-66
2021/10/11 06:32:17;;;;;;;0.00;0.00;;;;;;;;;;5108297;28;20216;-66
2021/10/11 06:34:44;;;;;;;0.00;0.00;;;;;;;;;;5103782;28;20212;-65
2021/10/11 06:37:12;;;;;;;0.00;0.00;;;;;;;;;;5108584;28;20229;-65
2021/10/11 06:39:39;;;;;;;0.00;0.00;;;;;;;;;;5108004;28;20217;-66
2021/10/11 06:42:06;;;;;;;0.00;0.00;;;;;;;;;;5103464;28;20202;-65
2021/10/11 06:44:34;;;;;;;0.00;0.00;;;;;;;;;;5101619;28;20331;-66
2021/10/11 06:47:01;;;;;;;0.00;0.00;;;;;;;;;;5101765;28;20209;-65
2021/10/11 06:49:30;;;;;;;0.00;0.00;;;;;;;;;;5104031;28;20200;-66
2021/10/11 06:51:57;;;;;;;0.00;0.00;;;;;;;;;;5102652;28;20573;-66
2021/10/11 06:54:25;;;;;;;0.00;0.00;;;;;;;;;;5104228;28;20686;-66
2021/10/11 06:56:52;;;;;;;0.00;0.00;;;;;;;;;;5098898;28;20308;-66
2021/10/11 06:59:21;;;;;;;0.00;0.00;;;;;;;;;;5098951;28;20232;-66
2021/10/11 07:01:48;;;;;;;0.00;0.00;;;;;;;;;;5101998;28;20198;-66
2021/10/11 07:04:16;;;;;;;0.00;0.00;;;;;;;;;;5100210;28;20217;-65
2021/10/11 07:06:44;;;;;;;0.00;0.00;;;;;;;;;;5099695;28;20201;-65
2021/10/11 07:09:12;;;;;;;0.00;0.00;;;;;;;;;;5096301;28;20202;-65
2021/10/11 07:11:39;;;;;;;0.00;0.00;;;;;;;;;;5100382;28;20210;-65
2021/10/11 07:14:07;;;;;;;0.00;0.00;;;;;;;;;;5099663;28;20206;-66
2021/10/11 07:16:34;;;;;;;0.00;0.00;;;;;;;;;;5098946;28;20229;-65
2021/10/11 07:19:01;;;;;;;0.00;0.00;;;;;;;;;;5100898;28;20228;-66
2021/10/11 07:21:29;;;;;;;0.27;0.27;;;;;;;;;;5098692;28;20863;-66
2021/10/11 07:23:58;;;;;;;0.00;0.00;;;;;;;;;;5098930;28;20209;-65
2021/10/11 07:26:25;;;;;;;0.00;0.00;;;;;;;;;;5098225;28;20570;-66
2021/10/11 07:28:53;;;;;;;0.00;0.00;;;;;;;;;;5103160;28;20198;-64
2021/10/11 07:31:20;;;;;;;0.00;0.00;;;;;;;;;;5104373;28;20578;-67
2021/10/11 07:33:48;;;;;;;0.00;0.00;;;;;;;;;;5108730;28;20197;-67
2021/10/11 07:36:15;;;;;;;0.00;0.00;;;;;;;;;;5109439;28;21113;-66
2021/10/11 07:38:42;;;;;;;0.00;0.00;;;;;;;;;;5107358;28;20196;-66
2021/10/11 07:41:11;;;;;;;0.00;0.00;;;;;;;;;;5107426;28;20209;-66
2021/10/11 07:43:39;;;;;;;0.10;0.10;;;;;;;;;;5109491;28;20288;-65
2021/10/11 07:46:07;;;;;;;0.00;0.00;;;;;;;;;;5109357;28;20569;-66
2021/10/11 07:48:35;;;;;;;0.00;0.00;;;;;;;;;;5098995;28;20202;-67
2021/10/11 07:51:02;;;;;;;0.00;0.00;;;;;;;;;;5098658;28;20213;-68
2021/10/11 07:53:29;;;;;;;0.00;0.00;;;;;;;;;;5099789;28;20686;-65
2021/10/11 07:55:57;;;;;;;0.00;0.00;;;;;;;;;;5098565;28;20236;-66
2021/10/11 07:58:26;;;;;;;0.00;0.00;;;;;;;;;;5101036;28;20201;-66
2021/10/11 08:00:53;;;;;;;0.00;0.00;;;;;;;;;;5099384;28;20201;-66
2021/10/11 08:03:22;;;;;;;0.00;0.00;;;;;;;;;;5097247;28;20252;-66
2021/10/11 08:05:49;;;;;;;0.00;0.00;;;;;;;;;;5099921;28;20206;-67
2021/10/11 08:08:17;;;;;;;0.00;0.00;;;;;;;;;;5103372;28;20578;-65
2021/10/11 08:10:46;;;;;;;0.00;0.00;;;;;;;;;;5102480;28;20313;-66
2021/10/11 08:13:13;;;;;;;0.00;0.00;;;;;;;;;;5102349;28;20562;-67
2021/10/11 08:15:42;;;;;;;0.00;0.00;;;;;;;;;;5103484;28;20233;-66
2021/10/11 08:18:11;;;;;;;0.00;0.00;;;;;;;;;;5102233;28;20297;-65
2021/10/11 08:20:41;;;;;;;0.00;0.00;;;;;;;;;;5101493;28;20295;-68
2021/10/11 08:23:09;;;;;;;0.00;0.00;;;;;;;;;;5111852;28;20194;-66
2021/10/11 08:25:37;;;;;;;0.20;0.20;;;;;;;;;;5110232;28;20670;-68
2021/10/11 08:28:04;;;;;;;0.00;0.00;;;;;;;;;;5103665;28;20209;-67
2021/10/11 08:30:32;;;;;;;0.00;0.00;;;;;;;;;;5103750;28;20566;-67
2021/10/11 08:33:01;;;;;;;0.00;0.00;;;;;;;;;;5099200;28;20217;-66
2021/10/11 08:35:28;;;;;;;0.00;0.00;;;;;;;;;;5101000;28;20600;-66
2021/10/11 08:37:56;;;;;;;0.00;0.00;;;;;;;;;;5103923;28;20260;-67
2021/10/11 08:40:23;;;;;;;0.00;0.00;;;;;;;;;;5103991;28;20212;-66
2021/10/11 08:42:52;;;;;;;0.00;0.00;;;;;;;;;;5101558;28;21005;-67
2021/10/11 08:45:19;;;;;;;0.00;0.00;;;;;;;;;;5112912;28;20190;-65
2021/10/11 08:47:47;;;;;;;0.00;0.00;;;;;;;;;;5109294;28;20988;-68
2021/10/11 08:50:17;;;;;;;0.00;0.00;;;;;;;;;;5109652;28;20670;-65
2021/10/11 08:52:46;;;;;;;0.00;0.00;;;;;;;;;;5106722;28;20205;-67
2021/10/11 08:55:13;;;;;;;0.00;0.00;;;;;;;;;;5103795;28;20614;-66
2021/10/11 08:57:41;;;;;;;0.00;0.00;;;;;;;;;;5103717;28;20698;-66
2021/10/11 09:00:10;;;;;;;0.00;0.00;;;;;;;;;;5100856;28;20209;-67
2021/10/11 09:02:45;;;;;;;0.00;0.00;;;;;;;;;;5105316;28;20619;-67
2021/10/11 09:05:18;;;;;;;0.30;0.30;;;;;;;;;;5110027;28;20212;-66
2021/10/11 09:07:48;;;;;;;0.00;0.00;;;;;;;;;;5101771;28;20202;-66
2021/10/11 09:10:15;;;;;;;0.00;0.00;;;;;;;;;;5100595;28;20574;-66
2021/10/11 09:12:47;;;;;;;0.00;0.00;;;;;;;;;;5096916;28;20666;-66
2021/10/11 09:15:15;;;;;;;0.00;0.00;;;;;;;;;;5109041;28;20236;-66
2021/10/11 09:17:46;;;;;;;0.00;0.00;;;;;;;;;;5106140;28;20259;-66
2021/10/11 09:20:14;;;;;;;0.00;0.00;;;;;;;;;;5100991;28;20202;-66
2021/10/11 09:22:43;;;;;;;0.00;0.00;;;;;;;;;;5105202;28;20302;-67
2021/10/11 09:25:12;;;;;;;0.00;0.00;;;;;;;;;;5111967;28;20568;-67
2021/10/11 09:27:46;;;;;;;0.00;0.00;;;;;;;;;;5100880;28;20201;-64
2021/10/11 09:30:15;;;;;;;0.00;0.00;;;;;;;;;;5094669;28;20194;-66
2021/10/11 09:32:42;;;;;;;0.00;0.00;;;;;;;;;;5105990;28;20198;-65
2021/10/11 09:35:11;;;;;;;0.00;0.00;;;;;;;;;;5108419;28;21996;-66
2021/10/11 09:37:39;;;;;;;0.00;0.00;;;;;;;;;;5102192;28;20237;-67
2021/10/11 09:40:20;;;;;;;0.00;0.00;;;;;;;;;;5116097;28;20205;-65
2021/10/11 09:42:48;;;;;;;0.00;0.00;;;;;;;;;;5107578;28;20212;-65
2021/10/11 09:45:15;;;;;;;0.00;0.00;;;;;;;;;;5099199;28;20204;-66
2021/10/11 09:47:45;;;;;;;0.00;0.00;;;;;;;;;;5110356;28;20258;-65
2021/10/11 09:50:13;;;;;;;0.00;0.00;;;;;;;;;;5099596;28;20217;-65
2021/10/11 09:52:43;;;;;;;0.00;0.00;;;;;;;;;;5111611;28;20206;-64
2021/10/11 09:55:11;;;;;;;0.00;0.00;;;;;;;;;;5118596;28;20293;-67
2021/10/11 09:57:40;;;;;;;0.00;0.00;;;;;;;;;;5105568;28;20236;-66
2021/10/11 10:00:09;;;;;;;0.00;0.00;;;;;;;;;;5107666;28;20212;-66
2021/10/11 10:02:38;;;;;;;0.00;0.00;;;;;;;;;;5103482;28;20244;-66
2021/10/11 10:05:08;;;;;;;0.00;0.00;;;;;;;;;;5109631;28;20200;-65
2021/10/11 10:07:36;;;;;;;0.00;0.00;;;;;;;;;;5107789;28;20615;-65
2021/10/11 10:10:05;;;;;;;0.00;0.00;;;;;;;;;;5108906;28;20205;-66
2021/10/11 10:12:33;;;;;;;0.00;0.00;;;;;;;;;;5102910;28;20214;-65
2021/10/11 10:15:02;;;;;;;0.00;0.00;;;;;;;;;;5100702;28;20194;-65
2021/10/11 10:17:35;;;;;;;0.00;0.00;;;;;;;;;;5100006;28;20608;-66
2021/10/11 10:20:08;;;;;;;0.00;0.00;;;;;;;;;;5099239;28;20209;-66
2021/10/11 10:22:36;;;;;;;0.00;0.00;;;;;;;;;;5102578;28;20198;-66
2021/10/11 10:25:08;;;;;;;0.00;0.00;;;;;;;;;;5099798;28;20218;-65
2021/10/11 10:27:38;;;;;;;0.00;0.00;;;;;;;;;;5103138;28;20561;-66
2021/10/11 10:30:17;;;;;;;0.00;0.00;;;;;;;;;;5101447;28;20233;-66
2021/10/11 10:32:56;;;;;;;0.00;0.00;;;;;;;;;;5108547;28;20668;-66
2021/10/11 10:35:23;;;;;;;0.00;0.00;;;;;;;;;;5100697;28;20206;-66
2021/10/11 10:37:51;;;;;;;0.00;0.00;;;;;;;;;;5103055;28;20248;-65
2021/10/11 10:40:19;;;;;;;0.00;0.00;;;;;;;;;;5101445;28;20982;-66
2021/10/11 10:42:47;;;;;;;0.00;0.00;;;;;;;;;;5096256;28;20201;-66
2021/10/11 10:45:18;;;;;;;0.00;0.00;;;;;;;;;;5104941;28;20213;-65
2021/10/11 10:47:45;;;;;;;0.00;0.00;;;;;;;;;;5102022;28;20194;-65
2021/10/11 10:50:14;;;;;;;0.00;0.00;;;;;;;;;;5100519;28;20291;-66
2021/10/11 10:52:42;;;;;;;0.00;0.00;;;;;;;;;;5103844;28;20575;-66
2021/10/11 10:55:09;;;;;;;0.00;0.00;;;;;;;;;;5101656;28;20194;-68
2021/10/11 10:57:37;;;;;;;0.00;0.00;;;;;;;;;;5104257;28;20224;-66
2021/10/11 11:00:10;;;;;;;0.00;0.00;;;;;;;;;;5101534;28;20209;-66
2021/10/11 11:02:39;;;;;;;0.10;0.10;;;;;;;;;;5102897;28;20198;-67
2021/10/11 11:05:07;;;;;;;0.00;0.00;;;;;;;;;;5110418;28;20205;-67
2021/10/11 11:07:36;;;;;;;0.00;0.00;;;;;;;;;;5103725;28;20214;-65
2021/10/11 11:10:06;;;;;;;0.00;0.00;;;;;;;;;;5107244;28;20210;-66
2021/10/11 11:12:34;;;;;;;0.00;0.00;;;;;;;;;;5102857;28;20281;-66
2021/10/11 11:15:02;;;;;;;0.00;0.00;;;;;;;;;;5093730;28;20205;-66
2021/10/11 11:17:30;;;;;;;0.00;0.00;;;;;;;;;;5099915;28;20790;-66
2021/10/11 11:20:00;;;;;;;0.00;0.00;;;;;;;;;;5103512;28;20245;-66
2021/10/11 11:22:29;;;;;;;0.00;0.00;;;;;;;;;;5102757;28;20196;-66
2021/10/11 11:25:00;;;;;;;0.00;0.00;;;;;;;;;;5099034;28;20209;-66
2021/10/11 11:27:32;;;;;;;0.00;0.00;;;;;;;;;;5104239;28;20221;-69
2021/10/11 11:30:00;;;;;;;0.00;0.00;;;;;;;;;;5109630;28;20217;-66
2021/10/11 11:32:28;;;;;;;0.00;0.00;;;;;;;;;;5098002;28;20206;-67
2021/10/11 11:34:56;;;;;;;0.00;0.00;;;;;;;;;;5098550;28;20317;-67
2021/10/11 11:37:25;;;;;;;0.00;0.00;;;;;;;;;;5109958;28;20226;-66
2021/10/11 11:39:52;;;;;;;0.00;0.00;;;;;;;;;;5106401;28;20193;-68
2021/10/11 11:42:29;;;;;;;0.00;0.00;;;;;;;;;;5105582;28;20280;-67
2021/10/11 11:44:57;;;;;;;0.20;0.20;;;;;;;;;;5106408;28;20225;-67
2021/10/11 11:47:28;;;;;;;0.00;0.00;;;;;;;;;;5107690;28;20197;-68
2021/10/11 11:49:56;;;;;;;0.00;0.00;;;;;;;;;;5107315;28;20197;-67
2021/10/11 11:52:32;;;;;;;0.00;0.00;;;;;;;;;;5105860;28;20217;-65
2021/10/11 11:55:00;;;;;;;0.00;0.00;;;;;;;;;;5108047;28;20654;-64
2021/10/11 11:57:30;;;;;;;0.00;0.00;;;;;;;;;;5102673;28;20221;-65
2021/10/11 11:59:57;;;;;;;0.00;0.00;;;;;;;;;;5111045;28;20194;-65
2021/10/11 12:02:25;;;;;;;0.00;0.00;;;;;;;;;;5103090;28;20204;-65
2021/10/11 12:04:53;;;;;;;0.00;0.00;;;;;;;;;;5107764;28;20194;-65
2021/10/11 12:07:21;;;;;;;0.00;0.00;;;;;;;;;;5108611;28;20206;-65
2021/10/11 12:09:50;;;;;;;0.00;0.00;;;;;;;;;;5108649;28;20663;-65
2021/10/11 12:12:18;;;;;;;0.00;0.00;;;;;;;;;;5104596;28;20212;-66
2021/10/11 12:14:50;;;;;;;0.00;0.00;;;;;;;;;;5103735;28;20612;-65
2021/10/11 12:17:18;;;;;;;0.00;0.00;;;;;;;;;;5103343;28;20234;-67
2021/10/11 12:19:45;;;;;;;0.00;0.00;;;;;;;;;;5108003;28;20210;-65
2021/10/11 12:22:12;;;;;;;0.00;0.00;;;;;;;;;;5107197;28;20202;-68
2021/10/11 12:24:40;;;;;;;0.00;0.00;;;;;;;;;;5102068;28;20587;-65
2021/10/11 12:27:11;;;;;;;0.00;0.00;;;;;;;;;;5101692;28;20204;-65
2021/10/11 12:29:40;;;;;;;0.00;0.00;;;;;;;;;;5099892;28;21150;-65
2021/10/11 12:32:08;;;;;;;0.00;0.00;;;;;;;;;;5098368;28;20210;-66
2021/10/11 12:34:37;;;;;;;0.00;0.00;;;;;;;;;;5097740;28;20917;-66
2021/10/11 12:37:05;;;;;;;0.00;0.00;;;;;;;;;;5100426;28;21084;-65
2021/10/11 12:39:34;;;;;;;0.00;0.00;;;;;;;;;;5098484;28;20198;-68
2021/10/11 12:42:02;;;;;;;0.00;0.00;;;;;;;;;;5100197;28;20197;-66
2021/10/11 12:44:43;;;;;;;0.00;0.00;;;;;;;;;;5099314;28;20190;-70
2021/10/11 12:47:10;;;;;;;0.00;0.00;;;;;;;;;;5103062;28;20280;-66
2021/10/11 12:49:39;;;;;;;0.00;0.00;;;;;;;;;;5097988;28;20292;-67
2021/10/11 12:52:07;;;;;;;0.00;0.00;;;;;;;;;;5099837;28;20216;-68
2021/10/11 12:54:37;;;;;;;0.00;0.00;;;;;;;;;;5099600;28;20189;-65
2021/10/11 12:57:05;;;;;;;0.00;0.00;;;;;;;;;;5101759;28;20292;-65
2021/10/11 12:59:33;;;;;;;0.00;0.00;;;;;;;;;;5104520;28;20209;-65
2021/10/11 13:02:02;;;;;;;0.00;0.00;;;;;;;;;;5102359;28;20293;-65
2021/10/11 13:04:30;;;;;;;0.00;0.00;;;;;;;;;;5108093;28;20205;-66
2021/10/11 13:06:57;;;;;;;0.00;0.00;;;;;;;;;;5103755;28;20197;-66
2021/10/11 13:09:25;;;;;;;0.00;0.00;;;;;;;;;;5112872;28;20663;-68
2021/10/11 13:11:52;;;;;;;0.00;0.00;;;;;;;;;;5105362;28;20193;-69
2021/10/11 13:14:20;;;;;;;0.00;0.00;;;;;;;;;;5105533;28;20574;-67
2021/10/11 13:16:47;;;;;;;0.00;0.00;;;;;;;;;;5099958;28;20225;-68
2021/10/11 13:19:16;;;;;;;0.00;0.00;;;;;;;;;;5107195;28;20244;-67
2021/10/11 13:21:44;;;;;;;0.00;0.00;;;;;;;;;;5099539;28;20205;-67
2021/10/11 13:24:11;;;;;;;0.00;0.00;;;;;;;;;;5108336;28;20667;-68
2021/10/11 13:26:38;;;;;;;0.00;0.00;;;;;;;;;;5109700;28;20536;-67
2021/10/11 13:29:19;;;;;;;0.00;0.00;;;;;;;;;;5107397;28;20570;-68
2021/10/11 13:32:37;;;;;;;0.00;0.00;;;;;;;;;;5109736;28;20210;-67
2021/10/11 14:27:47;;;;;;;0.00;0.00;;;;;;;;;;5065846;28;20663;-67
2021/10/11 14:30:23;;;;;;;0.00;0.00;;;;;;;;;;5067127;28;20202;-68
2021/10/11 14:33:03;;;;;;;0.00;0.00;;;;;;;;;;5063836;28;20214;-67
2021/10/11 16:00:58;;;;;;;0.00;0.00;;;;;;;;;;5065019;28;20666;-69
2021/10/11 16:03:42;;;;;;;0.00;0.00;;;;;;;;;;5068889;28;20204;-68
2021/10/11 16:06:10;;;;;;;0.00;0.00;;;;;;;;;;5069778;28;20202;-70
2021/10/11 16:08:37;;;;;;;0.00;0.00;;;;;;;;;;5067020;28;20206;-67
2021/10/11 16:11:05;;;;;;;0.00;0.00;;;;;;;;;;5067272;28;20206;-66
2021/10/11 16:13:32;;;;;;;0.00;0.00;;;;;;;;;;5065583;28;20556;-67
2021/10/11 16:16:00;;;;;;;0.00;0.00;;;;;;;;;;5066480;28;20214;-72
2021/10/11 16:18:30;;;;;;;0.00;0.00;;;;;;;;;;5062538;28;20309;-67
2021/10/11 16:20:59;;;;;;;0.00;0.00;;;;;;;;;;5064393;28;20214;-66
2021/10/11 16:23:26;;;;;;;0.00;0.00;;;;;;;;;;5069057;28;20191;-71
2021/10/11 16:25:54;;;;;;;0.00;0.00;;;;;;;;;;5066504;28;20210;-67
2021/10/11 16:28:22;;;;;;;0.30;0.30;;;;;;;;;;5070509;28;20770;-70
2021/10/11 16:30:49;;;;;;;0.00;0.00;;;;;;;;;;5072630;28;20532;-67
2021/10/11 16:33:17;;;;;;;0.00;0.00;;;;;;;;;;5075866;28;20206;-66
2021/10/11 16:35:46;;;;;;;0.00;0.00;;;;;;;;;;5075365;28;20207;-67
2021/10/11 16:38:13;;;;;;;0.00;0.00;;;;;;;;;;5073578;28;20237;-67
2021/10/11 16:40:41;;;;;;;0.00;0.00;;;;;;;;;;5070620;28;20199;-66
2021/10/11 16:43:09;;;;;;;0.00;0.00;;;;;;;;;;5064098;28;20214;-67
2021/10/11 16:45:36;;;;;;;0.00;0.00;;;;;;;;;;5067499;28;20203;-68
2021/10/11 16:48:04;;;;;;;0.00;0.00;;;;;;;;;;5065888;28;20210;-69
2021/10/11 16:50:31;;;;;;;0.00;0.00;;;;;;;;;;5064580;28;20675;-70
2021/10/11 16:53:00;;;;;;;0.00;0.00;;;;;;;;;;5066647;28;20203;-66
2021/10/11 16:55:28;;;;;;;0.00;0.00;;;;;;;;;;5072828;28;20195;-70
2021/10/11 16:57:55;;;;;;;0.00;0.00;;;;;;;;;;5076972;28;20218;-68
2021/10/11 17:00:23;;;;;;;0.00;0.00;;;;;;;;;;5071859;28;20217;-70
2021/10/11 17:02:50;;;;;;;0.00;0.00;;;;;;;;;;5070320;28;20199;-70
2021/10/11 17:05:19;;;;;;;0.00;0.00;;;;;;;;;;5071984;28;20215;-69
2021/10/11 17:07:50;;;;;;;0.00;0.00;;;;;;;;;;5070377;28;20247;-68